createdAt,value
2019-04-03T00:00:40.163Z,99.90
2019-04-03T00:03:08.713Z,99.90
2019-04-03T00:05:37.170Z,99.90
2019-04-03T00:08:06.401Z,99.90
2019-04-03T00:10:35.958Z,99.90
2019-04-03T00:13:06.202Z,99.90
2019-04-03T00:15:34.726Z,99.90
2019-04-03T00:18:03.189Z,99.90
2019-04-03T00:20:31.717Z,99.90
2019-04-03T00:23:00.221Z,99.90
2019-04-03T00:25:28.682Z,99.90
2019-04-03T00:27:57.211Z,99.90
2019-04-03T00:30:25.835Z,99.90
2019-04-03T00:32:54.520Z,99.90
2019-04-03T00:35:23.527Z,99.90
2019-04-03T00:37:53.752Z,99.90
2019-04-03T00:40:22.749Z,99.90
2019-04-03T00:42:54.102Z,99.90
2019-04-03T00:45:24.464Z,99.90
2019-04-03T00:47:55.372Z,99.90
2019-04-03T00:50:23.081Z,99.90
2019-04-03T00:52:51.571Z,99.90
2019-04-03T00:55:20.038Z,99.90
2019-04-03T00:57:48.612Z,99.90
2019-04-03T01:00:17.397Z,99.90
2019-04-03T01:02:45.821Z,99.90
2019-04-03T01:05:14.472Z,99.90
2019-04-03T01:07:43.046Z,99.90
2019-04-03T01:10:12.041Z,99.90
2019-04-03T01:12:40.473Z,99.90
2019-04-03T01:15:09.289Z,99.90
2019-04-03T01:17:37.851Z,99.90
2019-04-03T01:20:06.955Z,99.90
2019-04-03T01:22:37.097Z,99.90
2019-04-03T01:25:25.054Z,99.90
2019-04-03T01:27:53.535Z,99.90
2019-04-03T01:30:21.987Z,99.90
2019-04-03T01:32:50.478Z,99.90
2019-04-03T01:35:18.970Z,99.90
2019-04-03T01:37:49.271Z,99.90
2019-04-03T01:40:20.099Z,99.90
2019-04-03T01:42:47.841Z,99.90
2019-04-03T01:45:16.318Z,99.90
2019-04-03T01:47:44.774Z,99.90
2019-04-03T01:50:13.533Z,99.90
2019-04-03T01:52:41.985Z,99.90
2019-04-03T01:55:10.550Z,99.90
2019-04-03T01:57:39.051Z,99.90
2019-04-03T02:00:08.774Z,99.90
2019-04-03T02:02:38.674Z,99.90
2019-04-03T02:05:08.249Z,99.90
2019-04-03T02:07:36.681Z,99.90
2019-04-03T02:10:12.242Z,99.90
2019-04-03T02:12:40.771Z,99.90
2019-04-03T02:15:09.319Z,99.90
2019-04-03T02:17:37.831Z,99.90
2019-04-03T02:20:06.532Z,99.90
2019-04-03T02:22:34.981Z,99.90
2019-04-03T02:25:04.684Z,99.90
2019-04-03T02:27:33.282Z,99.90
2019-04-03T02:30:02.461Z,99.90
2019-04-03T02:32:31.003Z,99.90
2019-04-03T02:34:59.538Z,99.90
2019-04-03T02:37:27.966Z,99.90
2019-04-03T02:39:59.048Z,99.90
2019-04-03T02:42:26.626Z,99.90
2019-04-03T02:44:55.294Z,99.90
2019-04-03T02:47:23.855Z,99.90
2019-04-03T02:49:52.432Z,99.90
2019-04-03T02:52:24.158Z,99.90
2019-04-03T02:54:51.674Z,99.90
2019-04-03T02:57:20.148Z,99.90
2019-04-03T02:59:48.958Z,99.90
2019-04-03T03:02:17.385Z,99.90
2019-04-03T03:04:46.060Z,99.90
2019-04-03T03:07:15.063Z,99.90
2019-04-03T03:09:46.599Z,99.90
2019-04-03T03:12:15.851Z,99.90
2019-04-03T03:14:44.476Z,99.90
2019-04-03T03:17:13.233Z,99.90
2019-04-03T03:19:42.139Z,99.90
2019-04-03T03:22:11.600Z,99.90
2019-04-03T03:24:40.152Z,99.90
2019-04-03T03:27:10.119Z,99.90
2019-04-03T03:29:39.424Z,99.90
2019-04-03T03:32:18.308Z,99.90
2019-04-03T03:34:55.471Z,99.90
2019-04-03T03:37:12.260Z,99.90
2019-04-03T03:39:42.681Z,99.90
2019-04-03T03:42:10.681Z,99.90
2019-04-03T03:44:43.222Z,99.90
2019-04-03T03:47:10.874Z,99.90
2019-04-03T03:49:41.115Z,99.90
2019-04-03T03:52:10.462Z,99.90
2019-04-03T03:54:39.545Z,99.90
2019-04-03T03:57:08.414Z,99.90
2019-04-03T03:59:37.715Z,99.90
2019-04-03T04:02:06.622Z,99.90
2019-04-03T04:04:35.336Z,99.90
2019-04-03T04:07:04.616Z,99.90
2019-04-03T04:09:33.656Z,99.90
2019-04-03T04:12:06.099Z,99.90
2019-04-03T04:14:32.958Z,99.90
2019-04-03T04:17:01.682Z,99.90
2019-04-03T04:19:31.088Z,99.90
2019-04-03T04:22:00.887Z,99.90
2019-04-03T04:24:29.417Z,99.90
2019-04-03T04:26:57.911Z,99.90
2019-04-03T04:29:26.415Z,99.90
2019-04-03T04:31:54.866Z,99.90
2019-04-03T04:34:23.352Z,99.90
2019-04-03T04:36:53.084Z,99.90
2019-04-03T04:39:22.006Z,99.90
2019-04-03T04:41:50.429Z,99.90
2019-04-03T04:44:19.018Z,99.90
2019-04-03T04:46:47.543Z,99.90
2019-04-03T04:49:16.065Z,99.90
2019-04-03T04:51:44.587Z,99.90
2019-04-03T04:54:13.082Z,99.90
2019-04-03T04:56:41.697Z,99.90
2019-04-03T04:59:11.780Z,99.90
2019-04-03T05:01:40.509Z,99.90
2019-04-03T05:04:08.999Z,99.90
2019-04-03T05:06:38.114Z,99.90
2019-04-03T05:09:07.213Z,99.90
2019-04-03T05:11:36.840Z,99.90
2019-04-03T05:14:05.901Z,99.90
2019-04-03T05:16:34.528Z,99.90
2019-04-03T05:19:09.492Z,99.90
2019-04-03T05:21:33.285Z,99.90
2019-04-03T05:24:11.544Z,99.90
2019-04-03T05:26:32.765Z,99.90
2019-04-03T05:29:01.247Z,99.90
2019-04-03T05:31:29.789Z,99.90
2019-04-03T05:33:58.266Z,99.90
2019-04-03T05:36:27.020Z,99.90
2019-04-03T05:38:55.614Z,99.90
2019-04-03T05:41:24.161Z,99.90
2019-04-03T05:43:52.686Z,99.90
2019-04-03T05:46:21.221Z,99.90
2019-04-03T05:48:50.009Z,99.90
2019-04-03T05:51:20.763Z,99.90
2019-04-03T05:53:49.256Z,99.90
2019-04-03T05:56:17.709Z,99.90
2019-04-03T05:58:55.570Z,99.90
2019-04-03T06:01:16.532Z,99.90
2019-04-03T06:03:45.810Z,99.90
2019-04-03T06:06:15.458Z,99.90
2019-04-03T06:08:44.185Z,99.90
2019-04-03T06:11:12.670Z,99.90
2019-04-03T06:13:41.171Z,99.90
2019-04-03T06:16:09.658Z,99.90
2019-04-03T06:18:38.123Z,99.90
2019-04-03T06:21:06.577Z,99.90
2019-04-03T06:23:35.012Z,99.90
2019-04-03T06:26:03.517Z,99.90
2019-04-03T06:28:32.011Z,99.90
2019-04-03T06:31:01.175Z,99.90
2019-04-03T06:33:31.486Z,99.90
2019-04-03T06:35:59.836Z,99.90
2019-04-03T06:38:28.331Z,99.90
2019-04-03T06:40:56.830Z,99.90
2019-04-03T06:43:25.288Z,99.90
2019-04-03T06:45:55.296Z,99.90
2019-04-03T06:48:23.914Z,99.90
2019-04-03T06:50:52.494Z,99.90
2019-04-03T06:53:23.931Z,99.90
2019-04-03T06:55:51.183Z,99.90
2019-04-03T06:58:19.663Z,99.90
2019-04-03T07:00:48.108Z,99.90
2019-04-03T07:03:16.601Z,99.90
2019-04-03T07:05:45.207Z,99.90
2019-04-03T07:08:13.665Z,99.90
2019-04-03T07:10:54.221Z,99.90
2019-04-03T07:13:14.977Z,99.90
2019-04-03T07:15:43.012Z,99.90
2019-04-03T07:18:11.532Z,99.90
2019-04-03T07:20:40.026Z,99.90
2019-04-03T07:23:08.493Z,99.90
2019-04-03T07:25:36.933Z,99.90
2019-04-03T07:28:08.584Z,99.90
2019-04-03T07:30:35.780Z,99.90
2019-04-03T07:33:05.783Z,99.90
2019-04-03T07:35:34.521Z,99.90
2019-04-03T07:38:03.019Z,99.90
2019-04-03T07:40:31.503Z,99.90
2019-04-03T07:43:02.517Z,99.90
2019-04-03T07:45:32.778Z,99.90
2019-04-03T07:48:02.265Z,99.90
2019-04-03T07:50:30.792Z,99.90
2019-04-03T07:52:59.281Z,99.90
2019-04-03T07:55:28.521Z,99.90
2019-04-03T07:57:59.498Z,99.90
2019-04-03T08:00:27.611Z,99.90
2019-04-03T08:02:56.076Z,99.90
2019-04-03T08:05:24.613Z,99.90
2019-04-03T08:07:53.091Z,99.90
2019-04-03T08:10:21.828Z,99.90
2019-04-03T08:12:50.738Z,99.90
2019-04-03T08:15:19.312Z,99.90
2019-04-03T08:17:49.703Z,99.90
2019-04-03T08:20:19.582Z,99.90
2019-04-03T08:22:48.345Z,99.90
2019-04-03T08:25:16.906Z,99.90
2019-04-03T08:27:45.379Z,99.90
2019-04-03T08:30:14.644Z,99.90
2019-04-03T08:32:43.161Z,99.90
2019-04-03T08:35:20.828Z,99.90
2019-04-03T08:37:42.338Z,99.90
2019-04-03T08:40:11.087Z,99.90
2019-04-03T08:42:39.615Z,99.90
2019-04-03T08:45:11.869Z,99.90
2019-04-03T08:47:40.523Z,99.90
2019-04-03T08:50:10.531Z,99.90
2019-04-03T08:52:39.648Z,99.90
2019-04-03T08:55:09.272Z,99.90
2019-04-03T08:57:37.756Z,99.90
2019-04-03T09:00:11.218Z,99.90
2019-04-03T09:02:42.645Z,99.90
2019-04-03T09:05:13.202Z,99.90
2019-04-03T09:07:40.424Z,99.90
2019-04-03T09:10:09.896Z,99.90
2019-04-03T09:12:38.918Z,99.90
2019-04-03T09:15:08.146Z,99.90
2019-04-03T09:17:36.693Z,99.90
2019-04-03T09:20:06.065Z,99.90
2019-04-03T09:22:34.626Z,99.90
2019-04-03T09:25:04.186Z,99.90
2019-04-03T09:27:32.678Z,99.90
2019-04-03T09:30:01.794Z,99.90
2019-04-03T09:32:30.315Z,99.90
2019-04-03T09:34:59.060Z,99.90
2019-04-03T09:37:29.042Z,99.90
2019-04-03T09:39:57.506Z,99.90
2019-04-03T09:42:25.990Z,99.90
2019-04-03T09:44:56.226Z,99.90
2019-04-03T09:47:24.655Z,99.90
2019-04-03T09:49:53.269Z,99.90
2019-04-03T09:52:23.597Z,99.90
2019-04-03T09:54:51.895Z,99.90
2019-04-03T09:57:20.366Z,99.90
2019-04-03T09:59:48.818Z,99.90
2019-04-03T10:02:19.564Z,99.90
2019-04-03T10:04:47.873Z,99.90
2019-04-03T10:07:16.478Z,99.90
2019-04-03T10:09:44.995Z,99.90
2019-04-03T10:12:13.637Z,99.90
2019-04-03T10:14:42.213Z,99.90
2019-04-03T10:17:10.686Z,99.90
2019-04-03T10:19:39.163Z,99.90
2019-04-03T10:22:07.605Z,99.90
2019-04-03T10:24:36.456Z,99.90
2019-04-03T10:27:05.171Z,99.90
2019-04-03T10:29:33.614Z,99.90
2019-04-03T10:32:02.185Z,99.90
2019-04-03T10:34:30.719Z,99.90
2019-04-03T10:36:59.244Z,99.90
2019-04-03T10:39:27.694Z,99.90
2019-04-03T10:41:56.190Z,99.90
2019-04-03T10:44:24.647Z,99.90
2019-04-03T10:46:53.371Z,99.90
2019-04-03T10:49:21.936Z,99.90
2019-04-03T10:51:50.643Z,99.90
2019-04-03T10:54:19.212Z,99.90
2019-04-03T10:56:47.788Z,99.90
2019-04-03T10:59:18.462Z,99.90
2019-04-03T11:01:46.783Z,99.90
2019-04-03T11:04:15.217Z,99.90
2019-04-03T11:06:43.687Z,99.90
2019-04-03T11:09:12.267Z,99.90
2019-04-03T11:11:42.943Z,99.90
2019-04-03T11:14:10.976Z,99.90
2019-04-03T11:16:39.546Z,99.90
2019-04-03T11:19:08.129Z,99.90
2019-04-03T11:21:36.587Z,99.90
2019-04-03T11:24:06.686Z,99.90
2019-04-03T11:26:35.313Z,99.90
2019-04-03T11:29:03.953Z,99.90
2019-04-03T11:31:36.073Z,99.90
2019-04-03T11:34:03.899Z,99.90
2019-04-03T11:36:32.660Z,99.90
2019-04-03T11:39:11.328Z,99.50
2019-04-03T11:41:31.359Z,99.90
2019-04-03T11:44:01.265Z,99.90
2019-04-03T11:46:29.841Z,99.90
2019-04-03T11:48:58.331Z,99.90
2019-04-03T11:51:28.912Z,99.90
2019-04-03T11:53:56.978Z,99.90
2019-04-03T11:56:25.464Z,99.90
2019-04-03T11:58:54.278Z,99.90
2019-04-03T12:01:23.002Z,99.90
2019-04-03T12:03:51.658Z,99.90
2019-04-03T12:06:21.098Z,99.90
2019-04-03T12:08:49.680Z,99.90
2019-04-03T12:11:18.275Z,99.90
2019-04-03T12:13:46.765Z,99.90
2019-04-03T12:16:15.302Z,99.90
2019-04-03T12:18:43.937Z,99.90
2019-04-03T12:21:14.122Z,99.90
2019-04-03T12:23:42.611Z,99.90
2019-04-03T12:26:11.801Z,99.90
2019-04-03T12:28:40.927Z,99.50
2019-04-03T12:31:09.481Z,98.50
2019-04-03T12:33:38.002Z,97.70
2019-04-03T12:36:07.338Z,98.50
2019-04-03T12:38:35.946Z,98.10
2019-04-03T12:41:05.385Z,99.90
2019-04-03T12:43:34.370Z,97.40
2019-04-03T12:46:03.277Z,99.70
2019-04-03T12:48:32.201Z,98.10
2019-04-03T12:51:01.113Z,97.80
2019-04-03T12:53:29.657Z,96.70
2019-04-03T12:55:58.436Z,95.30
2019-04-03T12:58:27.025Z,96.30
2019-04-03T13:00:55.494Z,98.30
2019-04-03T13:03:25.687Z,98.50
2019-04-03T13:05:54.174Z,97.20
2019-04-03T13:08:23.017Z,98.10
2019-04-03T13:10:51.587Z,98.10
2019-04-03T13:13:20.484Z,93.20
2019-04-03T13:15:49.389Z,93.90
2019-04-03T13:18:18.195Z,93.70
2019-04-03T13:20:46.653Z,91.50
2019-04-03T13:23:15.591Z,91.90
2019-04-03T13:25:44.241Z,94.60
2019-04-03T13:28:12.776Z,90.40
2019-04-03T13:30:43.292Z,92.00
2019-04-03T13:33:11.426Z,90.40
2019-04-03T13:35:39.955Z,89.10
2019-04-03T13:38:08.475Z,95.00
2019-04-03T13:40:38.439Z,94.30
2019-04-03T13:43:07.274Z,93.20
2019-04-03T13:45:35.758Z,91.10
2019-04-03T13:48:04.520Z,88.60
2019-04-03T13:50:38.152Z,88.80
2019-04-03T13:53:06.673Z,87.90
2019-04-03T13:55:37.672Z,90.00
2019-04-03T13:58:05.749Z,89.70
2019-04-03T14:00:34.946Z,89.30
2019-04-03T14:03:03.827Z,90.40
2019-04-03T14:05:33.257Z,90.00
2019-04-03T14:08:04.550Z,86.90
2019-04-03T14:10:32.895Z,89.10
2019-04-03T14:13:01.525Z,87.70
2019-04-03T14:15:30.021Z,89.60
2019-04-03T14:17:59.235Z,90.10
2019-04-03T14:20:28.653Z,90.30
2019-04-03T14:22:57.572Z,90.20
2019-04-03T14:25:31.403Z,90.10
2019-04-03T14:27:56.489Z,91.50
2019-04-03T14:30:25.087Z,90.70
2019-04-03T14:32:54.626Z,91.40
2019-04-03T14:35:45.453Z,88.70
2019-04-03T14:37:53.757Z,89.10
2019-04-03T14:40:22.209Z,86.70
2019-04-03T14:42:51.756Z,89.20
2019-04-03T14:45:21.056Z,87.60
2019-04-03T14:47:49.701Z,87.80
2019-04-03T14:50:18.237Z,86.40
2019-04-03T14:52:48.725Z,84.70
2019-04-03T14:55:20.802Z,90.10
2019-04-03T14:57:47.145Z,88.80
2019-04-03T15:00:26.042Z,89.70
2019-04-03T15:02:46.522Z,88.00
2019-04-03T15:05:15.181Z,86.90
2019-04-03T15:07:43.669Z,88.90
2019-04-03T15:10:12.783Z,86.50
2019-04-03T15:12:41.288Z,84.60
2019-04-03T15:15:10.232Z,84.80
2019-04-03T15:17:39.050Z,84.80
2019-04-03T15:20:09.587Z,85.10
2019-04-03T15:22:38.325Z,83.80
2019-04-03T15:25:07.533Z,82.50
2019-04-03T15:27:36.983Z,84.80
2019-04-03T15:30:12.129Z,85.20
2019-04-03T15:32:41.261Z,81.00
2019-04-03T15:35:10.307Z,81.30
2019-04-03T15:37:41.465Z,82.50
2019-04-03T15:40:09.376Z,81.40
2019-04-03T15:42:39.857Z,82.30
2019-04-03T15:45:09.035Z,83.80
2019-04-03T15:47:41.608Z,83.60
2019-04-03T15:50:08.581Z,84.60
2019-04-03T15:52:37.162Z,86.00
2019-04-03T15:55:08.388Z,87.30
2019-04-03T15:57:39.780Z,86.50
2019-04-03T16:00:16.131Z,86.80
2019-04-03T16:02:46.362Z,91.40
2019-04-03T16:05:15.574Z,91.60
2019-04-03T16:07:44.133Z,92.70
2019-04-03T16:10:13.077Z,93.30
2019-04-03T16:12:43.256Z,92.80
2019-04-03T16:15:11.952Z,93.30
2019-04-03T16:17:40.407Z,94.60
2019-04-03T16:20:09.598Z,96.30
2019-04-03T16:22:38.300Z,95.60
2019-04-03T16:25:08.181Z,95.70
2019-04-03T16:27:36.712Z,96.10
2019-04-03T16:30:09.764Z,95.90
2019-04-03T16:32:38.942Z,98.20
2019-04-03T16:35:08.730Z,94.90
2019-04-03T16:37:37.611Z,93.40
2019-04-03T16:40:08.013Z,95.40
2019-04-03T16:42:37.071Z,94.60
2019-04-03T16:45:10.582Z,94.30
2019-04-03T16:47:39.292Z,92.90
2019-04-03T16:50:08.745Z,92.20
2019-04-03T16:52:38.125Z,92.30
2019-04-03T16:55:07.914Z,92.60
2019-04-03T16:57:37.058Z,92.80
2019-04-03T17:00:10.140Z,94.20
2019-04-03T17:02:39.024Z,95.40
2019-04-03T17:05:10.433Z,98.60
2019-04-03T17:07:38.542Z,99.90
2019-04-03T17:10:09.405Z,99.90
2019-04-03T17:12:37.835Z,99.90
2019-04-03T17:15:08.297Z,99.90
2019-04-03T17:17:37.054Z,99.90
2019-04-03T17:20:07.908Z,99.90
2019-04-03T17:22:38.992Z,99.90
2019-04-03T17:25:09.048Z,99.90
2019-04-03T17:27:37.792Z,99.90
2019-04-03T17:30:09.447Z,99.90
2019-04-03T17:32:38.855Z,99.90
2019-04-03T17:35:09.851Z,99.90
2019-04-03T17:37:38.575Z,99.90
2019-04-03T17:40:10.159Z,99.90
2019-04-03T17:42:39.338Z,99.90
2019-04-03T17:45:09.161Z,99.90
2019-04-03T17:47:37.755Z,99.90
2019-04-03T17:50:07.799Z,99.90
2019-04-03T17:52:37.019Z,99.90
2019-04-03T17:55:10.659Z,99.90
2019-04-03T17:57:39.689Z,99.90
2019-04-03T18:00:18.775Z,99.90
2019-04-03T18:02:47.333Z,99.90
2019-04-03T18:05:15.865Z,99.90
2019-04-03T18:07:44.336Z,99.90
2019-04-03T18:10:13.197Z,99.90
2019-04-03T18:12:41.862Z,99.90
2019-04-03T18:15:11.737Z,99.90
2019-04-03T18:17:40.319Z,99.90
2019-04-03T18:20:12.581Z,99.90
2019-04-03T18:22:39.467Z,99.90
2019-04-03T18:25:08.674Z,99.90
2019-04-03T18:27:37.445Z,99.90
2019-04-03T18:30:11.271Z,99.90
2019-04-03T18:32:38.558Z,99.90
2019-04-03T18:35:07.458Z,99.90
2019-04-03T18:37:36.099Z,99.90
2019-04-03T18:40:06.668Z,99.90
2019-04-03T18:42:35.114Z,99.90
2019-04-03T18:45:04.530Z,99.90
2019-04-03T18:47:40.905Z,99.90
2019-04-03T18:50:04.190Z,99.90
2019-04-03T18:52:32.765Z,99.90
2019-04-03T18:55:01.497Z,99.90
2019-04-03T18:57:29.964Z,99.90
2019-04-03T19:00:00.491Z,99.90
2019-04-03T19:02:28.730Z,99.90
2019-04-03T19:05:02.192Z,99.90
2019-04-03T19:07:27.446Z,99.90
2019-04-03T19:10:06.430Z,99.90
2019-04-03T19:12:35.378Z,99.90
2019-04-03T19:14:56.230Z,99.90
2019-04-03T19:17:25.375Z,99.90
2019-04-03T19:20:04.031Z,99.90
2019-04-03T19:22:25.872Z,99.90
2019-04-03T19:24:54.312Z,99.90
2019-04-03T19:27:22.856Z,99.90
2019-04-03T19:29:51.377Z,99.90
2019-04-03T19:32:19.840Z,99.90
2019-04-03T19:34:50.161Z,99.90
2019-04-03T19:37:18.661Z,99.90
2019-04-03T19:39:47.207Z,99.90
2019-04-03T19:42:15.664Z,99.90
2019-04-03T19:44:44.117Z,99.90
2019-04-03T19:47:12.571Z,99.90
2019-04-03T19:49:41.054Z,99.90
2019-04-03T19:52:09.608Z,99.90
2019-04-03T19:54:38.138Z,99.90
2019-04-03T19:57:06.674Z,99.90
2019-04-03T19:59:35.122Z,99.90
2019-04-03T20:02:03.633Z,99.90
2019-04-03T20:04:32.155Z,99.90
2019-04-03T20:07:00.585Z,99.90
2019-04-03T20:09:31.882Z,99.90
2019-04-03T20:11:59.350Z,99.90
2019-04-03T20:14:27.794Z,99.90
2019-04-03T20:16:58.398Z,99.90
2019-04-03T20:19:26.727Z,99.90
2019-04-03T20:21:55.920Z,99.90
2019-04-03T20:24:25.253Z,99.90
2019-04-03T20:26:54.036Z,99.90
2019-04-03T20:29:22.638Z,99.90
2019-04-03T20:31:51.150Z,99.90
2019-04-03T20:34:19.714Z,99.90
2019-04-03T20:36:51.032Z,99.90
2019-04-03T20:39:18.397Z,99.90
2019-04-03T20:41:46.969Z,99.90
2019-04-03T20:44:17.357Z,99.90
2019-04-03T20:46:45.633Z,99.90
2019-04-03T20:49:14.129Z,99.90
2019-04-03T20:51:42.617Z,99.90
2019-04-03T20:54:11.837Z,99.90
2019-04-03T20:56:40.608Z,99.90
2019-04-03T20:59:11.425Z,99.90
2019-04-03T21:01:39.458Z,99.90
2019-04-03T21:04:07.979Z,99.90
2019-04-03T21:06:37.402Z,99.90
2019-04-03T21:09:07.731Z,99.90
2019-04-03T21:11:36.298Z,99.90
2019-04-03T21:14:05.724Z,99.90
2019-04-03T21:16:34.574Z,99.90
2019-04-03T21:19:03.033Z,99.90
2019-04-03T21:21:31.539Z,99.90
2019-04-03T21:24:02.007Z,99.90
2019-04-03T21:26:31.128Z,99.90
2019-04-03T21:29:00.323Z,99.90
2019-04-03T21:31:28.823Z,99.90
2019-04-03T21:33:58.063Z,99.90
2019-04-03T21:36:26.543Z,99.90
2019-04-03T21:38:55.087Z,99.90
2019-04-03T21:41:23.555Z,99.90
2019-04-03T21:43:51.985Z,99.90
2019-04-03T21:46:20.495Z,99.90
2019-04-03T21:48:48.938Z,99.90
2019-04-03T21:51:20.529Z,99.90
2019-04-03T21:53:47.594Z,99.90
2019-04-03T21:56:16.099Z,99.90
2019-04-03T21:58:44.569Z,99.90
2019-04-03T22:01:17.602Z,99.90
2019-04-03T22:03:46.195Z,99.90
2019-04-03T22:06:14.742Z,99.90
2019-04-03T22:08:43.295Z,99.90
2019-04-03T22:11:11.827Z,99.90
2019-04-03T22:13:40.417Z,99.90
2019-04-03T22:16:08.873Z,99.90
2019-04-03T22:18:37.447Z,99.90
2019-04-03T22:21:05.940Z,99.90
2019-04-03T22:23:35.908Z,99.90
2019-04-03T22:26:05.072Z,99.90
2019-04-03T22:28:33.539Z,99.90
2019-04-03T22:31:02.019Z,99.90
2019-04-03T22:33:30.589Z,99.90
2019-04-03T22:36:03.367Z,99.90
2019-04-03T22:38:31.701Z,99.90
2019-04-03T22:41:00.249Z,99.90
2019-04-03T22:43:30.979Z,99.90
2019-04-03T22:46:00.689Z,99.90
2019-04-03T22:48:29.193Z,99.90
2019-04-03T22:50:57.709Z,99.90
2019-04-03T22:53:26.163Z,99.90
2019-04-03T22:55:54.672Z,99.90
2019-04-03T22:58:23.162Z,99.90
2019-04-03T23:00:51.663Z,99.90
2019-04-03T23:03:20.190Z,99.90
2019-04-03T23:05:48.657Z,99.90
2019-04-03T23:08:17.211Z,99.90
2019-04-03T23:10:45.671Z,99.90
2019-04-03T23:13:14.171Z,99.90
2019-04-03T23:15:42.683Z,99.90
2019-04-03T23:18:11.188Z,99.90
2019-04-03T23:20:39.754Z,99.90
2019-04-03T23:23:08.303Z,99.90
2019-04-03T23:25:36.778Z,99.90
2019-04-03T23:28:05.334Z,99.90
2019-04-03T23:30:33.778Z,99.90
2019-04-03T23:33:02.266Z,99.90
2019-04-03T23:35:30.766Z,99.90
2019-04-03T23:37:59.279Z,99.90
2019-04-03T23:40:27.784Z,99.90
2019-04-03T23:42:56.341Z,99.90
2019-04-03T23:45:26.512Z,99.90
2019-04-03T23:47:55.029Z,99.90
2019-04-03T23:50:23.489Z,99.90
2019-04-03T23:52:51.964Z,99.90
2019-04-03T23:55:20.489Z,99.90
2019-04-03T23:57:49.008Z,99.90
